Portada
METAR-TAF:

METAR-TAF

Aeroports :

Aeroport de Fes

Fes, Marroc

latitud: 33-56N, longitud: 004-59W, altitud: 579 m

Observació

L'informe es va fer fa 29 minuts, a les 10:30 UTC
Vent 11 kt del Nord-Est
Temperatura 18°C
Humitat 59%
Pressió 1025 hPa
Visibilitat 10 km o més
sense núvols per sota de 1500 mi sense presència de cumulonimbus.

METAR: GMFF 211030Z 05011KT CAVOK 18/10 Q1025 NOSIG

Hora: 11:59 (10:59 UTC)

Pronòstic

L'informe es va fer fa 5 hores i 59 minuts, a les 05:00 UTC
Pronòstic vàlid del 21 a les 06 UTC al 22 a les 12 UTC
Vent 3 kt del Nord-Est
Visibilitat 10 km o més
sense núvols per sota de 1500 mi sense presència de cumulonimbus.
Evolucionant progressivament
l' 21 a les 10 UTC al 21 a les 14 UTC
Vent 10 kt del Est
Evolucionant progressivament
l' 21 a les 16 UTC al 21 a les 20 UTC
Vent 14 kt del Nord-Est amb ràfegues de 24 kt

TAF: GMFF 210500Z 2106/2212 05003KT CAVOK BECMG 2110/2114 10010KT BECMG 2116/2120 04014G24KT

Observacions i pronòstics meteorològics de més de 4000 aeroports (METAR i TAF).

Les estacions disponibles són els punts grocs i vermells al mapa.

Posi el ratolí al punt desitjat per veure el nom de l'estació.

Feu clic per veure les observacions i els pronòstics meteorològics.

Per canviar el mapa: feu clic els botons verds amb una creu de color negre per apropar; al botó verd amb un guió per allunyar la imatge; o en les fletxes verdes per a mapes adjacents.


METAR-TAF: